sensor_id;sensor_type;location;lat;lon;timestamp;P1;durP1;ratioP1;P2;durP2;ratioP2
9218;SDS011;4644;48.858;9.184;2023-03-01T00:00:06;13.13;;;10.33;;
9218;SDS011;4644;48.858;9.184;2023-03-01T00:02:34;18.23;;;9.53;;
9218;SDS011;4644;48.858;9.184;2023-03-01T00:05:01;15.30;;;10.03;;
9218;SDS011;4644;48.858;9.184;2023-03-01T00:07:30;15.77;;;10.47;;
9218;SDS011;4644;48.858;9.184;2023-03-01T00:09:58;16.93;;;10.73;;
9218;SDS011;4644;48.858;9.184;2023-03-01T00:12:25;15.77;;;11.43;;
9218;SDS011;4644;48.858;9.184;2023-03-01T00:14:52;17.60;;;11.03;;
9218;SDS011;4644;48.858;9.184;2023-03-01T00:17:19;18.33;;;10.63;;
9218;SDS011;4644;48.858;9.184;2023-03-01T00:19:46;16.57;;;11.10;;
9218;SDS011;4644;48.858;9.184;2023-03-01T00:22:13;15.33;;;11.00;;
9218;SDS011;4644;48.858;9.184;2023-03-01T00:24:40;17.00;;;11.20;;
9218;SDS011;4644;48.858;9.184;2023-03-01T00:27:08;19.27;;;10.67;;
9218;SDS011;4644;48.858;9.184;2023-03-01T00:29:35;17.10;;;10.47;;
9218;SDS011;4644;48.858;9.184;2023-03-01T00:32:02;14.83;;;10.27;;
9218;SDS011;4644;48.858;9.184;2023-03-01T00:34:29;15.50;;;11.10;;
9218;SDS011;4644;48.858;9.184;2023-03-01T00:36:57;16.97;;;11.13;;
9218;SDS011;4644;48.858;9.184;2023-03-01T00:39:30;14.70;;;11.13;;
9218;SDS011;4644;48.858;9.184;2023-03-01T00:41:58;17.53;;;11.43;;
9218;SDS011;4644;48.858;9.184;2023-03-01T00:44:26;15.67;;;10.63;;
9218;SDS011;4644;48.858;9.184;2023-03-01T00:46:53;17.30;;;11.57;;
9218;SDS011;4644;48.858;9.184;2023-03-01T00:49:21;14.77;;;10.43;;
9218;SDS011;4644;48.858;9.184;2023-03-01T00:51:49;15.20;;;10.53;;
9218;SDS011;4644;48.858;9.184;2023-03-01T00:54:16;17.20;;;11.50;;
9218;SDS011;4644;48.858;9.184;2023-03-01T00:56:43;16.67;;;10.57;;
9218;SDS011;4644;48.858;9.184;2023-03-01T00:59:10;21.20;;;11.77;;
9218;SDS011;4644;48.858;9.184;2023-03-01T01:01:38;17.40;;;11.77;;
9218;SDS011;4644;48.858;9.184;2023-03-01T01:04:06;17.40;;;10.97;;
9218;SDS011;4644;48.858;9.184;2023-03-01T01:06:35;16.90;;;11.27;;
9218;SDS011;4644;48.858;9.184;2023-03-01T01:09:04;18.67;;;12.33;;
9218;SDS011;4644;48.858;9.184;2023-03-01T01:11:34;17.17;;;11.00;;
9218;SDS011;4644;48.858;9.184;2023-03-01T01:14:01;17.30;;;11.33;;
9218;SDS011;4644;48.858;9.184;2023-03-01T01:16:30;16.70;;;11.33;;
9218;SDS011;4644;48.858;9.184;2023-03-01T01:18:58;16.70;;;11.43;;
9218;SDS011;4644;48.858;9.184;2023-03-01T01:21:25;17.47;;;12.33;;
9218;SDS011;4644;48.858;9.184;2023-03-01T01:23:53;15.53;;;11.27;;
9218;SDS011;4644;48.858;9.184;2023-03-01T01:26:21;17.60;;;11.83;;
9218;SDS011;4644;48.858;9.184;2023-03-01T01:28:50;19.13;;;12.40;;
9218;SDS011;4644;48.858;9.184;2023-03-01T01:31:18;18.63;;;11.83;;
9218;SDS011;4644;48.858;9.184;2023-03-01T01:33:45;16.17;;;11.30;;
9218;SDS011;4644;48.858;9.184;2023-03-01T01:36:14;16.60;;;11.60;;
9218;SDS011;4644;48.858;9.184;2023-03-01T01:38:40;15.77;;;11.47;;
9218;SDS011;4644;48.858;9.184;2023-03-01T01:41:09;14.87;;;10.90;;
9218;SDS011;4644;48.858;9.184;2023-03-01T01:43:38;16.80;;;11.07;;
9218;SDS011;4644;48.858;9.184;2023-03-01T01:46:10;18.77;;;12.10;;
9218;SDS011;4644;48.858;9.184;2023-03-01T01:48:45;18.57;;;11.60;;
9218;SDS011;4644;48.858;9.184;2023-03-01T01:51:17;16.97;;;11.67;;
9218;SDS011;4644;48.858;9.184;2023-03-01T01:53:47;16.70;;;11.27;;
9218;SDS011;4644;48.858;9.184;2023-03-01T01:56:19;18.10;;;12.17;;
9218;SDS011;4644;48.858;9.184;2023-03-01T01:58:47;17.17;;;11.10;;
9218;SDS011;4644;48.858;9.184;2023-03-01T02:01:15;16.93;;;11.40;;
9218;SDS011;4644;48.858;9.184;2023-03-01T02:03:43;17.77;;;11.73;;
9218;SDS011;4644;48.858;9.184;2023-03-01T02:06:13;16.67;;;11.77;;
9218;SDS011;4644;48.858;9.184;2023-03-01T02:08:47;16.77;;;11.57;;
9218;SDS011;4644;48.858;9.184;2023-03-01T02:11:17;17.20;;;11.70;;
9218;SDS011;4644;48.858;9.184;2023-03-01T02:13:45;21.30;;;11.53;;
9218;SDS011;4644;48.858;9.184;2023-03-01T02:16:15;18.17;;;11.33;;
9218;SDS011;4644;48.858;9.184;2023-03-01T02:18:43;18.00;;;11.67;;
9218;SDS011;4644;48.858;9.184;2023-03-01T02:21:14;19.97;;;11.77;;
9218;SDS011;4644;48.858;9.184;2023-03-01T02:23:52;18.60;;;12.63;;
9218;SDS011;4644;48.858;9.184;2023-03-01T02:26:23;18.90;;;12.57;;
9218;SDS011;4644;48.858;9.184;2023-03-01T02:29:01;16.17;;;11.83;;
9218;SDS011;4644;48.858;9.184;2023-03-01T02:31:28;18.80;;;12.63;;
9218;SDS011;4644;48.858;9.184;2023-03-01T02:34:11;18.80;;;13.10;;
9218;SDS011;4644;48.858;9.184;2023-03-01T02:36:41;20.90;;;12.37;;
9218;SDS011;4644;48.858;9.184;2023-03-01T02:39:12;18.83;;;12.23;;
9218;SDS011;4644;48.858;9.184;2023-03-01T02:41:44;19.37;;;12.67;;
9218;SDS011;4644;48.858;9.184;2023-03-01T02:44:15;19.50;;;11.93;;
9218;SDS011;4644;48.858;9.184;2023-03-01T02:46:43;20.83;;;13.37;;
9218;SDS011;4644;48.858;9.184;2023-03-01T02:49:18;18.90;;;12.10;;
9218;SDS011;4644;48.858;9.184;2023-03-01T02:51:50;18.83;;;12.63;;
9218;SDS011;4644;48.858;9.184;2023-03-01T02:54:28;17.30;;;11.67;;
9218;SDS011;4644;48.858;9.184;2023-03-01T02:56:57;18.83;;;12.57;;
9218;SDS011;4644;48.858;9.184;2023-03-01T02:59:28;18.07;;;12.00;;
9218;SDS011;4644;48.858;9.184;2023-03-01T03:01:57;16.73;;;12.37;;
9218;SDS011;4644;48.858;9.184;2023-03-01T03:04:26;17.50;;;11.37;;
9218;SDS011;4644;48.858;9.184;2023-03-01T03:06:53;18.33;;;13.10;;
9218;SDS011;4644;48.858;9.184;2023-03-01T03:09:20;18.73;;;12.73;;
9218;SDS011;4644;48.858;9.184;2023-03-01T03:11:47;20.57;;;13.57;;
9218;SDS011;4644;48.858;9.184;2023-03-01T03:14:14;17.20;;;12.53;;
9218;SDS011;4644;48.858;9.184;2023-03-01T03:16:44;19.87;;;13.43;;
9218;SDS011;4644;48.858;9.184;2023-03-01T03:19:13;18.97;;;12.40;;
9218;SDS011;4644;48.858;9.184;2023-03-01T03:21:41;18.90;;;12.43;;
9218;SDS011;4644;48.858;9.184;2023-03-01T03:24:08;18.70;;;12.83;;
9218;SDS011;4644;48.858;9.184;2023-03-01T03:26:36;20.17;;;12.60;;
9218;SDS011;4644;48.858;9.184;2023-03-01T03:29:03;24.47;;;12.83;;
9218;SDS011;4644;48.858;9.184;2023-03-01T03:31:30;20.63;;;12.70;;
9218;SDS011;4644;48.858;9.184;2023-03-01T03:33:58;17.80;;;12.87;;
9218;SDS011;4644;48.858;9.184;2023-03-01T03:36:25;21.30;;;13.60;;
9218;SDS011;4644;48.858;9.184;2023-03-01T03:38:52;18.30;;;12.87;;
9218;SDS011;4644;48.858;9.184;2023-03-01T03:41:19;17.20;;;11.57;;
9218;SDS011;4644;48.858;9.184;2023-03-01T03:43:46;21.50;;;12.90;;
9218;SDS011;4644;48.858;9.184;2023-03-01T03:46:14;16.80;;;11.20;;
9218;SDS011;4644;48.858;9.184;2023-03-01T03:48:42;18.00;;;12.83;;
9218;SDS011;4644;48.858;9.184;2023-03-01T03:51:12;17.77;;;11.67;;
9218;SDS011;4644;48.858;9.184;2023-03-01T03:53:40;20.67;;;12.80;;
9218;SDS011;4644;48.858;9.184;2023-03-01T03:56:07;20.50;;;13.67;;
9218;SDS011;4644;48.858;9.184;2023-03-01T03:58:35;19.70;;;12.50;;
9218;SDS011;4644;48.858;9.184;2023-03-01T04:01:02;21.20;;;13.23;;
9218;SDS011;4644;48.858;9.184;2023-03-01T04:03:30;19.63;;;12.87;;
9218;SDS011;4644;48.858;9.184;2023-03-01T04:05:58;18.57;;;12.63;;
9218;SDS011;4644;48.858;9.184;2023-03-01T04:08:27;19.43;;;12.40;;
9218;SDS011;4644;48.858;9.184;2023-03-01T04:10:57;19.23;;;12.23;;
9218;SDS011;4644;48.858;9.184;2023-03-01T04:13:46;19.23;;;13.00;;
9218;SDS011;4644;48.858;9.184;2023-03-01T04:16:13;20.60;;;12.23;;
9218;SDS011;4644;48.858;9.184;2023-03-01T04:18:40;20.67;;;13.10;;
9218;SDS011;4644;48.858;9.184;2023-03-01T04:21:07;21.33;;;12.77;;
9218;SDS011;4644;48.858;9.184;2023-03-01T04:23:36;20.90;;;12.77;;
9218;SDS011;4644;48.858;9.184;2023-03-01T04:26:05;18.73;;;12.03;;
9218;SDS011;4644;48.858;9.184;2023-03-01T04:28:33;20.77;;;13.27;;
9218;SDS011;4644;48.858;9.184;2023-03-01T04:31:02;17.80;;;12.23;;
9218;SDS011;4644;48.858;9.184;2023-03-01T04:33:37;18.73;;;12.63;;
9218;SDS011;4644;48.858;9.184;2023-03-01T04:36:05;19.77;;;13.17;;
9218;SDS011;4644;48.858;9.184;2023-03-01T04:38:33;20.27;;;12.07;;
9218;SDS011;4644;48.858;9.184;2023-03-01T04:41:03;20.43;;;12.87;;
9218;SDS011;4644;48.858;9.184;2023-03-01T04:43:31;19.60;;;12.90;;
9218;SDS011;4644;48.858;9.184;2023-03-01T04:46:02;20.23;;;12.53;;
9218;SDS011;4644;48.858;9.184;2023-03-01T04:48:31;20.70;;;13.03;;
9218;SDS011;4644;48.858;9.184;2023-03-01T04:50:58;18.60;;;13.17;;
9218;SDS011;4644;48.858;9.184;2023-03-01T04:53:26;17.23;;;12.60;;
9218;SDS011;4644;48.858;9.184;2023-03-01T04:55:53;21.37;;;13.03;;
9218;SDS011;4644;48.858;9.184;2023-03-01T04:58:23;19.07;;;13.00;;
9218;SDS011;4644;48.858;9.184;2023-03-01T05:00:50;20.53;;;14.00;;
9218;SDS011;4644;48.858;9.184;2023-03-01T05:03:17;20.80;;;14.07;;
9218;SDS011;4644;48.858;9.184;2023-03-01T05:05:45;18.17;;;12.00;;
9218;SDS011;4644;48.858;9.184;2023-03-01T05:08:14;16.93;;;11.83;;
9218;SDS011;4644;48.858;9.184;2023-03-01T05:10:43;18.30;;;12.57;;
9218;SDS011;4644;48.858;9.184;2023-03-01T05:13:12;18.17;;;12.57;;
9218;SDS011;4644;48.858;9.184;2023-03-01T05:15:46;18.37;;;12.17;;
9218;SDS011;4644;48.858;9.184;2023-03-01T05:18:13;21.10;;;12.60;;
9218;SDS011;4644;48.858;9.184;2023-03-01T05:20:40;21.07;;;13.33;;
9218;SDS011;4644;48.858;9.184;2023-03-01T05:23:07;19.30;;;12.63;;
9218;SDS011;4644;48.858;9.184;2023-03-01T05:25:34;18.60;;;12.80;;
9218;SDS011;4644;48.858;9.184;2023-03-01T05:28:05;19.87;;;12.67;;
9218;SDS011;4644;48.858;9.184;2023-03-01T05:30:34;18.47;;;13.50;;
9218;SDS011;4644;48.858;9.184;2023-03-01T05:33:05;23.37;;;13.00;;
9218;SDS011;4644;48.858;9.184;2023-03-01T05:35:38;17.03;;;12.30;;
9218;SDS011;4644;48.858;9.184;2023-03-01T05:38:07;20.70;;;13.27;;
9218;SDS011;4644;48.858;9.184;2023-03-01T05:40:34;19.23;;;12.63;;
9218;SDS011;4644;48.858;9.184;2023-03-01T05:43:01;20.13;;;13.37;;
9218;SDS011;4644;48.858;9.184;2023-03-01T05:45:30;20.00;;;13.33;;
9218;SDS011;4644;48.858;9.184;2023-03-01T05:47:58;21.37;;;13.43;;
9218;SDS011;4644;48.858;9.184;2023-03-01T05:50:27;21.50;;;13.30;;
9218;SDS011;4644;48.858;9.184;2023-03-01T05:52:59;21.80;;;13.33;;
9218;SDS011;4644;48.858;9.184;2023-03-01T05:55:27;21.47;;;13.17;;
9218;SDS011;4644;48.858;9.184;2023-03-01T05:57:57;21.80;;;13.00;;
9218;SDS011;4644;48.858;9.184;2023-03-01T06:00:25;23.70;;;14.83;;
9218;SDS011;4644;48.858;9.184;2023-03-01T06:02:53;19.50;;;12.80;;
9218;SDS011;4644;48.858;9.184;2023-03-01T06:05:20;21.47;;;13.53;;
9218;SDS011;4644;48.858;9.184;2023-03-01T06:07:48;20.93;;;12.93;;
9218;SDS011;4644;48.858;9.184;2023-03-01T06:10:16;22.17;;;13.23;;
9218;SDS011;4644;48.858;9.184;2023-03-01T06:12:43;24.60;;;14.17;;
9218;SDS011;4644;48.858;9.184;2023-03-01T06:15:11;21.87;;;13.67;;
9218;SDS011;4644;48.858;9.184;2023-03-01T06:17:39;20.67;;;13.40;;
9218;SDS011;4644;48.858;9.184;2023-03-01T06:20:09;17.77;;;12.90;;
9218;SDS011;4644;48.858;9.184;2023-03-01T06:22:37;21.57;;;14.07;;
9218;SDS011;4644;48.858;9.184;2023-03-01T06:25:06;22.00;;;13.90;;
9218;SDS011;4644;48.858;9.184;2023-03-01T06:27:33;21.00;;;13.83;;
9218;SDS011;4644;48.858;9.184;2023-03-01T06:30:00;18.60;;;13.40;;
9218;SDS011;4644;48.858;9.184;2023-03-01T06:32:28;22.23;;;12.80;;
9218;SDS011;4644;48.858;9.184;2023-03-01T06:34:55;18.73;;;12.73;;
9218;SDS011;4644;48.858;9.184;2023-03-01T06:37:23;19.57;;;13.20;;
9218;SDS011;4644;48.858;9.184;2023-03-01T06:39:50;20.23;;;14.10;;
9218;SDS011;4644;48.858;9.184;2023-03-01T06:42:19;21.90;;;13.90;;
9218;SDS011;4644;48.858;9.184;2023-03-01T06:44:46;20.83;;;12.67;;
9218;SDS011;4644;48.858;9.184;2023-03-01T06:47:13;21.40;;;13.83;;
9218;SDS011;4644;48.858;9.184;2023-03-01T06:49:40;21.03;;;13.73;;
9218;SDS011;4644;48.858;9.184;2023-03-01T06:52:07;17.87;;;12.87;;
9218;SDS011;4644;48.858;9.184;2023-03-01T06:54:34;18.07;;;12.70;;
9218;SDS011;4644;48.858;9.184;2023-03-01T06:57:01;19.57;;;12.83;;
9218;SDS011;4644;48.858;9.184;2023-03-01T06:59:30;20.70;;;14.17;;
9218;SDS011;4644;48.858;9.184;2023-03-01T07:01:57;20.10;;;14.10;;
9218;SDS011;4644;48.858;9.184;2023-03-01T07:04:23;21.13;;;13.40;;
9218;SDS011;4644;48.858;9.184;2023-03-01T07:06:53;23.53;;;14.37;;
9218;SDS011;4644;48.858;9.184;2023-03-01T07:09:20;21.57;;;13.80;;
9218;SDS011;4644;48.858;9.184;2023-03-01T07:11:48;21.07;;;13.47;;
9218;SDS011;4644;48.858;9.184;2023-03-01T07:14:15;21.97;;;14.50;;
9218;SDS011;4644;48.858;9.184;2023-03-01T07:16:43;23.17;;;14.17;;
9218;SDS011;4644;48.858;9.184;2023-03-01T07:19:10;18.97;;;13.53;;
9218;SDS011;4644;48.858;9.184;2023-03-01T07:21:37;18.97;;;12.53;;
9218;SDS011;4644;48.858;9.184;2023-03-01T07:24:05;22.33;;;14.50;;
9218;SDS011;4644;48.858;9.184;2023-03-01T07:26:32;19.07;;;13.23;;
9218;SDS011;4644;48.858;9.184;2023-03-01T07:28:59;23.00;;;13.60;;
9218;SDS011;4644;48.858;9.184;2023-03-01T07:31:27;21.53;;;13.63;;
9218;SDS011;4644;48.858;9.184;2023-03-01T07:33:55;19.37;;;12.80;;
9218;SDS011;4644;48.858;9.184;2023-03-01T07:36:23;20.63;;;13.13;;
9218;SDS011;4644;48.858;9.184;2023-03-01T07:38:50;18.40;;;12.60;;
9218;SDS011;4644;48.858;9.184;2023-03-01T07:41:17;19.37;;;13.13;;
9218;SDS011;4644;48.858;9.184;2023-03-01T07:43:44;21.90;;;13.13;;
9218;SDS011;4644;48.858;9.184;2023-03-01T07:46:11;20.50;;;12.77;;
9218;SDS011;4644;48.858;9.184;2023-03-01T07:48:38;20.37;;;13.53;;
9218;SDS011;4644;48.858;9.184;2023-03-01T07:51:06;18.93;;;11.63;;
9218;SDS011;4644;48.858;9.184;2023-03-01T07:53:34;19.20;;;12.60;;
9218;SDS011;4644;48.858;9.184;2023-03-01T07:56:02;20.27;;;13.07;;
9218;SDS011;4644;48.858;9.184;2023-03-01T07:58:30;20.80;;;13.17;;
9218;SDS011;4644;48.858;9.184;2023-03-01T08:01:00;21.33;;;13.60;;
9218;SDS011;4644;48.858;9.184;2023-03-01T08:03:27;19.50;;;12.90;;
9218;SDS011;4644;48.858;9.184;2023-03-01T08:05:54;18.87;;;13.30;;
9218;SDS011;4644;48.858;9.184;2023-03-01T08:08:23;25.30;;;13.37;;
9218;SDS011;4644;48.858;9.184;2023-03-01T08:10:50;22.17;;;13.37;;
9218;SDS011;4644;48.858;9.184;2023-03-01T08:13:18;20.63;;;13.67;;
9218;SDS011;4644;48.858;9.184;2023-03-01T08:15:47;23.00;;;13.70;;
9218;SDS011;4644;48.858;9.184;2023-03-01T08:18:14;20.50;;;13.33;;
9218;SDS011;4644;48.858;9.184;2023-03-01T08:20:41;20.37;;;13.10;;
9218;SDS011;4644;48.858;9.184;2023-03-01T08:23:08;20.00;;;12.63;;
9218;SDS011;4644;48.858;9.184;2023-03-01T08:25:36;19.60;;;12.83;;
9218;SDS011;4644;48.858;9.184;2023-03-01T08:28:04;21.30;;;12.50;;
9218;SDS011;4644;48.858;9.184;2023-03-01T08:30:32;22.03;;;13.20;;
9218;SDS011;4644;48.858;9.184;2023-03-01T08:33:00;20.47;;;13.03;;
9218;SDS011;4644;48.858;9.184;2023-03-01T08:35:27;20.60;;;12.97;;
9218;SDS011;4644;48.858;9.184;2023-03-01T08:37:54;19.80;;;12.87;;
9218;SDS011;4644;48.858;9.184;2023-03-01T08:40:21;21.30;;;14.03;;
9218;SDS011;4644;48.858;9.184;2023-03-01T08:42:49;19.90;;;13.40;;
9218;SDS011;4644;48.858;9.184;2023-03-01T08:45:16;20.53;;;12.83;;
9218;SDS011;4644;48.858;9.184;2023-03-01T08:47:44;20.80;;;13.23;;
9218;SDS011;4644;48.858;9.184;2023-03-01T08:50:11;19.00;;;12.63;;
9218;SDS011;4644;48.858;9.184;2023-03-01T08:52:38;25.93;;;13.87;;
9218;SDS011;4644;48.858;9.184;2023-03-01T08:55:05;19.60;;;12.80;;
9218;SDS011;4644;48.858;9.184;2023-03-01T08:57:33;21.60;;;13.37;;
9218;SDS011;4644;48.858;9.184;2023-03-01T09:00:02;20.87;;;13.33;;
9218;SDS011;4644;48.858;9.184;2023-03-01T09:02:33;19.10;;;12.90;;
9218;SDS011;4644;48.858;9.184;2023-03-01T09:05:00;19.90;;;12.53;;
9218;SDS011;4644;48.858;9.184;2023-03-01T09:07:27;17.03;;;12.30;;
9218;SDS011;4644;48.858;9.184;2023-03-01T09:09:54;19.13;;;12.70;;
9218;SDS011;4644;48.858;9.184;2023-03-01T09:12:23;19.50;;;13.23;;
9218;SDS011;4644;48.858;9.184;2023-03-01T09:14:51;18.90;;;12.90;;
9218;SDS011;4644;48.858;9.184;2023-03-01T09:17:20;21.07;;;12.47;;
9218;SDS011;4644;48.858;9.184;2023-03-01T09:19:47;20.33;;;12.40;;
9218;SDS011;4644;48.858;9.184;2023-03-01T09:22:15;18.93;;;13.03;;
9218;SDS011;4644;48.858;9.184;2023-03-01T09:24:42;18.83;;;13.30;;
9218;SDS011;4644;48.858;9.184;2023-03-01T09:27:09;21.57;;;12.90;;
9218;SDS011;4644;48.858;9.184;2023-03-01T09:29:37;20.93;;;13.77;;
9218;SDS011;4644;48.858;9.184;2023-03-01T09:32:04;20.57;;;12.87;;
9218;SDS011;4644;48.858;9.184;2023-03-01T09:34:34;19.43;;;12.50;;
9218;SDS011;4644;48.858;9.184;2023-03-01T09:37:22;17.53;;;12.57;;
9218;SDS011;4644;48.858;9.184;2023-03-01T09:39:49;22.17;;;12.50;;
9218;SDS011;4644;48.858;9.184;2023-03-01T09:42:16;18.83;;;12.57;;
9218;SDS011;4644;48.858;9.184;2023-03-01T09:44:44;19.10;;;12.30;;
9218;SDS011;4644;48.858;9.184;2023-03-01T09:47:16;19.97;;;12.70;;
9218;SDS011;4644;48.858;9.184;2023-03-01T09:49:48;17.17;;;12.33;;
9218;SDS011;4644;48.858;9.184;2023-03-01T09:52:26;20.87;;;13.33;;
9218;SDS011;4644;48.858;9.184;2023-03-01T09:54:59;21.93;;;13.07;;
9218;SDS011;4644;48.858;9.184;2023-03-01T09:57:30;19.00;;;13.60;;
9218;SDS011;4644;48.858;9.184;2023-03-01T10:00:16;21.27;;;13.33;;
9218;SDS011;4644;48.858;9.184;2023-03-01T10:02:57;17.20;;;12.07;;
9218;SDS011;4644;48.858;9.184;2023-03-01T10:05:34;19.00;;;12.73;;
9218;SDS011;4644;48.858;9.184;2023-03-01T10:08:24;18.20;;;13.30;;
9218;SDS011;4644;48.858;9.184;2023-03-01T10:11:01;20.33;;;13.30;;
9218;SDS011;4644;48.858;9.184;2023-03-01T10:13:29;18.53;;;12.83;;
9218;SDS011;4644;48.858;9.184;2023-03-01T10:16:05;20.93;;;12.60;;
9218;SDS011;4644;48.858;9.184;2023-03-01T10:18:38;20.40;;;12.97;;
9218;SDS011;4644;48.858;9.184;2023-03-01T10:21:12;19.00;;;11.83;;
9218;SDS011;4644;48.858;9.184;2023-03-01T10:23:41;18.63;;;12.70;;
9218;SDS011;4644;48.858;9.184;2023-03-01T10:26:17;17.90;;;12.63;;
9218;SDS011;4644;48.858;9.184;2023-03-01T10:29:01;19.47;;;12.90;;
9218;SDS011;4644;48.858;9.184;2023-03-01T10:31:36;18.63;;;11.83;;
9218;SDS011;4644;48.858;9.184;2023-03-01T10:34:10;16.53;;;11.83;;
9218;SDS011;4644;48.858;9.184;2023-03-01T10:36:41;17.33;;;12.37;;
9218;SDS011;4644;48.858;9.184;2023-03-01T10:39:13;19.37;;;12.87;;
9218;SDS011;4644;48.858;9.184;2023-03-01T10:44:42;18.67;;;12.67;;
9218;SDS011;4644;48.858;9.184;2023-03-01T10:47:14;16.40;;;12.33;;
9218;SDS011;4644;48.858;9.184;2023-03-01T10:49:53;17.67;;;12.60;;
9218;SDS011;4644;48.858;9.184;2023-03-01T10:52:24;16.53;;;12.03;;
9218;SDS011;4644;48.858;9.184;2023-03-01T10:54:55;19.50;;;11.97;;
9218;SDS011;4644;48.858;9.184;2023-03-01T10:57:31;15.80;;;11.40;;
9218;SDS011;4644;48.858;9.184;2023-03-01T11:02:49;19.57;;;12.37;;
9218;SDS011;4644;48.858;9.184;2023-03-01T11:05:22;16.40;;;11.13;;
9218;SDS011;4644;48.858;9.184;2023-03-01T11:07:52;15.13;;;11.40;;
9218;SDS011;4644;48.858;9.184;2023-03-01T11:10:22;15.83;;;11.40;;
9218;SDS011;4644;48.858;9.184;2023-03-01T11:12:51;15.60;;;10.90;;
9218;SDS011;4644;48.858;9.184;2023-03-01T11:15:23;15.20;;;10.90;;
9218;SDS011;4644;48.858;9.184;2023-03-01T11:17:52;15.40;;;10.60;;
9218;SDS011;4644;48.858;9.184;2023-03-01T11:20:24;14.87;;;11.03;;
9218;SDS011;4644;48.858;9.184;2023-03-01T11:22:54;14.80;;;9.83;;
9218;SDS011;4644;48.858;9.184;2023-03-01T11:25:25;15.70;;;10.87;;
9218;SDS011;4644;48.858;9.184;2023-03-01T11:27:54;14.10;;;10.63;;
9218;SDS011;4644;48.858;9.184;2023-03-01T11:30:23;16.60;;;10.93;;
9218;SDS011;4644;48.858;9.184;2023-03-01T11:32:57;15.37;;;9.70;;
9218;SDS011;4644;48.858;9.184;2023-03-01T11:35:31;15.00;;;10.07;;
9218;SDS011;4644;48.858;9.184;2023-03-01T11:38:04;15.47;;;10.73;;
9218;SDS011;4644;48.858;9.184;2023-03-01T11:40:44;17.23;;;10.93;;
9218;SDS011;4644;48.858;9.184;2023-03-01T11:43:17;15.00;;;10.80;;
9218;SDS011;4644;48.858;9.184;2023-03-01T11:45:57;15.87;;;11.17;;
9218;SDS011;4644;48.858;9.184;2023-03-01T11:48:44;17.07;;;11.37;;
9218;SDS011;4644;48.858;9.184;2023-03-01T11:51:21;13.93;;;10.73;;
9218;SDS011;4644;48.858;9.184;2023-03-01T11:53:56;16.73;;;11.30;;
9218;SDS011;4644;48.858;9.184;2023-03-01T11:56:34;16.10;;;11.73;;
9218;SDS011;4644;48.858;9.184;2023-03-01T11:59:10;16.03;;;11.13;;
9218;SDS011;4644;48.858;9.184;2023-03-01T12:01:56;14.13;;;10.27;;
9218;SDS011;4644;48.858;9.184;2023-03-01T12:07:44;15.40;;;11.70;;
9218;SDS011;4644;48.858;9.184;2023-03-01T12:10:23;17.47;;;11.80;;
9218;SDS011;4644;48.858;9.184;2023-03-01T12:12:57;17.17;;;11.67;;
9218;SDS011;4644;48.858;9.184;2023-03-01T12:15:39;13.47;;;10.80;;
9218;SDS011;4644;48.858;9.184;2023-03-01T12:18:25;13.37;;;10.80;;
9218;SDS011;4644;48.858;9.184;2023-03-01T12:21:16;14.87;;;11.30;;
9218;SDS011;4644;48.858;9.184;2023-03-01T12:23:58;17.33;;;11.23;;
9218;SDS011;4644;48.858;9.184;2023-03-01T12:26:38;16.70;;;11.50;;
9218;SDS011;4644;48.858;9.184;2023-03-01T12:29:20;14.80;;;11.03;;
9218;SDS011;4644;48.858;9.184;2023-03-01T12:31:56;15.77;;;11.67;;
9218;SDS011;4644;48.858;9.184;2023-03-01T12:34:44;15.77;;;11.13;;
9218;SDS011;4644;48.858;9.184;2023-03-01T12:37:24;17.07;;;11.30;;
9218;SDS011;4644;48.858;9.184;2023-03-01T12:40:03;15.47;;;11.93;;
9218;SDS011;4644;48.858;9.184;2023-03-01T12:42:46;15.43;;;11.40;;
9218;SDS011;4644;48.858;9.184;2023-03-01T12:45:38;16.03;;;11.13;;
9218;SDS011;4644;48.858;9.184;2023-03-01T12:48:17;15.07;;;11.27;;
9218;SDS011;4644;48.858;9.184;2023-03-01T12:50:53;15.90;;;12.17;;
9218;SDS011;4644;48.858;9.184;2023-03-01T12:53:24;17.87;;;11.30;;
9218;SDS011;4644;48.858;9.184;2023-03-01T12:55:53;16.33;;;11.37;;
9218;SDS011;4644;48.858;9.184;2023-03-01T12:58:26;16.13;;;11.77;;
9218;SDS011;4644;48.858;9.184;2023-03-01T13:01:01;17.53;;;11.63;;
9218;SDS011;4644;48.858;9.184;2023-03-01T13:03:53;16.77;;;11.47;;
9218;SDS011;4644;48.858;9.184;2023-03-01T13:06:41;16.17;;;11.00;;
9218;SDS011;4644;48.858;9.184;2023-03-01T13:09:14;16.70;;;12.03;;
9218;SDS011;4644;48.858;9.184;2023-03-01T13:11:48;14.17;;;11.00;;
9218;SDS011;4644;48.858;9.184;2023-03-01T13:19:59;20.30;;;11.50;;
9218;SDS011;4644;48.858;9.184;2023-03-01T13:22:27;18.13;;;12.40;;
9218;SDS011;4644;48.858;9.184;2023-03-01T13:25:01;16.07;;;11.63;;
9218;SDS011;4644;48.858;9.184;2023-03-01T13:27:38;14.60;;;11.20;;
9218;SDS011;4644;48.858;9.184;2023-03-01T13:30:12;16.03;;;11.60;;
9218;SDS011;4644;48.858;9.184;2023-03-01T13:42:27;17.53;;;11.83;;
9218;SDS011;4644;48.858;9.184;2023-03-01T13:45:02;15.70;;;12.17;;
9218;SDS011;4644;48.858;9.184;2023-03-01T13:47:34;14.93;;;11.67;;
9218;SDS011;4644;48.858;9.184;2023-03-01T13:50:03;18.43;;;11.80;;
9218;SDS011;4644;48.858;9.184;2023-03-01T13:52:35;17.10;;;11.77;;
9218;SDS011;4644;48.858;9.184;2023-03-01T13:55:06;17.00;;;13.00;;
9218;SDS011;4644;48.858;9.184;2023-03-01T13:57:44;20.30;;;12.47;;
9218;SDS011;4644;48.858;9.184;2023-03-01T14:00:32;19.83;;;13.07;;
9218;SDS011;4644;48.858;9.184;2023-03-01T14:03:23;20.80;;;12.80;;
9218;SDS011;4644;48.858;9.184;2023-03-01T14:06:01;18.30;;;11.97;;
9218;SDS011;4644;48.858;9.184;2023-03-01T14:08:32;19.70;;;13.43;;
9218;SDS011;4644;48.858;9.184;2023-03-01T14:11:22;16.30;;;12.07;;
9218;SDS011;4644;48.858;9.184;2023-03-01T14:14:04;17.60;;;12.27;;
9218;SDS011;4644;48.858;9.184;2023-03-01T14:16:49;20.67;;;12.60;;
9218;SDS011;4644;48.858;9.184;2023-03-01T14:19:28;18.63;;;12.60;;
9218;SDS011;4644;48.858;9.184;2023-03-01T14:21:59;21.77;;;12.37;;
9218;SDS011;4644;48.858;9.184;2023-03-01T14:24:33;17.47;;;12.87;;
9218;SDS011;4644;48.858;9.184;2023-03-01T14:27:08;16.90;;;12.60;;
9218;SDS011;4644;48.858;9.184;2023-03-01T14:29:38;18.63;;;12.43;;
9218;SDS011;4644;48.858;9.184;2023-03-01T14:32:09;18.90;;;12.77;;
9218;SDS011;4644;48.858;9.184;2023-03-01T14:34:43;19.27;;;12.40;;
9218;SDS011;4644;48.858;9.184;2023-03-01T14:37:16;17.47;;;12.50;;
9218;SDS011;4644;48.858;9.184;2023-03-01T14:39:46;22.13;;;12.37;;
9218;SDS011;4644;48.858;9.184;2023-03-01T14:42:14;16.30;;;12.37;;
9218;SDS011;4644;48.858;9.184;2023-03-01T14:44:42;19.17;;;12.70;;
9218;SDS011;4644;48.858;9.184;2023-03-01T14:47:11;18.20;;;12.93;;
9218;SDS011;4644;48.858;9.184;2023-03-01T14:49:41;21.03;;;13.23;;
9218;SDS011;4644;48.858;9.184;2023-03-01T14:52:17;15.57;;;11.87;;
9218;SDS011;4644;48.858;9.184;2023-03-01T14:54:47;17.67;;;12.83;;
9218;SDS011;4644;48.858;9.184;2023-03-01T14:57:17;16.70;;;13.10;;
9218;SDS011;4644;48.858;9.184;2023-03-01T14:59:48;16.80;;;12.67;;
9218;SDS011;4644;48.858;9.184;2023-03-01T15:02:18;20.67;;;12.13;;
9218;SDS011;4644;48.858;9.184;2023-03-01T15:04:49;17.93;;;11.90;;
9218;SDS011;4644;48.858;9.184;2023-03-01T15:07:19;18.53;;;12.80;;
9218;SDS011;4644;48.858;9.184;2023-03-01T15:09:46;17.23;;;12.40;;
9218;SDS011;4644;48.858;9.184;2023-03-01T15:12:36;18.20;;;12.10;;
9218;SDS011;4644;48.858;9.184;2023-03-01T15:15:21;18.40;;;12.37;;
9218;SDS011;4644;48.858;9.184;2023-03-01T15:17:58;18.20;;;12.80;;
9218;SDS011;4644;48.858;9.184;2023-03-01T15:20:27;21.03;;;13.03;;
9218;SDS011;4644;48.858;9.184;2023-03-01T15:22:58;18.13;;;12.17;;
9218;SDS011;4644;48.858;9.184;2023-03-01T15:25:27;17.23;;;11.53;;
9218;SDS011;4644;48.858;9.184;2023-03-01T15:27:56;18.30;;;12.53;;
9218;SDS011;4644;48.858;9.184;2023-03-01T15:30:26;19.77;;;12.13;;
9218;SDS011;4644;48.858;9.184;2023-03-01T15:36:03;21.37;;;12.83;;